createdAt,value
2023-05-09T00:04:33.088Z,19.70
2023-05-09T00:09:36.073Z,19.60
2023-05-09T00:14:40.927Z,23.73
2023-05-09T00:19:45.020Z,24.80
2023-05-09T00:24:49.237Z,21.67
2023-05-09T00:29:52.361Z,14.97
2023-05-09T00:34:55.517Z,15.47
2023-05-09T00:39:58.507Z,14.07
2023-05-09T00:45:01.848Z,13.30
2023-05-09T00:50:05.498Z,13.83
2023-05-09T00:55:09.361Z,13.00
2023-05-09T01:00:13.664Z,13.30
2023-05-09T01:05:17.195Z,12.43
2023-05-09T01:10:43.837Z,13.50
2023-05-09T01:15:58.093Z,12.80
2023-05-09T01:21:12.040Z,11.60
2023-05-09T01:26:26.520Z,12.80
2023-05-09T01:31:29.939Z,14.63
2023-05-09T01:36:33.629Z,14.77
2023-05-09T01:41:38.618Z,16.03
2023-05-09T01:46:42.896Z,15.43
2023-05-09T01:51:47.276Z,15.70
2023-05-09T01:56:51.620Z,14.57
2023-05-09T02:01:56.067Z,13.47
2023-05-09T02:07:00.707Z,13.33
2023-05-09T02:12:04.961Z,14.27
2023-05-09T02:17:09.890Z,19.20
2023-05-09T02:22:13.869Z,15.97
2023-05-09T02:27:17.519Z,14.30
2023-05-09T02:32:24.288Z,16.80
2023-05-09T02:37:28.113Z,16.03
2023-05-09T02:42:31.269Z,14.97
2023-05-09T02:47:34.554Z,14.40
2023-05-09T02:52:38.857Z,13.73
2023-05-09T02:57:42.031Z,14.93
2023-05-09T03:02:45.473Z,13.87
2023-05-09T03:07:49.239Z,13.83
2023-05-09T03:12:52.494Z,13.77
2023-05-09T03:17:55.659Z,14.80
2023-05-09T03:22:58.735Z,18.83
2023-05-09T03:28:01.802Z,15.13
2023-05-09T03:33:05.465Z,14.53
2023-05-09T03:38:08.501Z,13.50
2023-05-09T03:43:11.467Z,17.60
2023-05-09T03:48:14.587Z,31.40
2023-05-09T03:53:17.674Z,28.33
2023-05-09T03:58:20.913Z,28.27
2023-05-09T04:03:24.122Z,25.00
2023-05-09T04:08:27.831Z,18.77
2023-05-09T04:13:32.284Z,23.70
2023-05-09T04:18:35.392Z,26.03
2023-05-09T04:23:39.254Z,29.50
2023-05-09T04:28:42.214Z,24.73
2023-05-09T04:33:45.393Z,23.60
2023-05-09T04:38:48.852Z,22.50
2023-05-09T04:43:52.673Z,22.00
2023-05-09T04:48:55.772Z,23.33
2023-05-09T04:53:59.055Z,23.63
2023-05-09T04:59:02.184Z,22.83
2023-05-09T05:04:05.270Z,24.20
2023-05-09T05:09:11.107Z,22.30
2023-05-09T05:14:16.291Z,23.27
2023-05-09T05:19:20.795Z,22.47
2023-05-09T05:24:23.834Z,23.97
2023-05-09T05:29:27.203Z,23.03
2023-05-09T05:34:30.916Z,22.67
2023-05-09T05:39:34.072Z,22.13
2023-05-09T05:44:37.470Z,22.13
2023-05-09T05:49:40.797Z,20.50
2023-05-09T05:54:43.865Z,20.77
2023-05-09T05:59:51.502Z,21.33
2023-05-09T06:04:56.068Z,20.60
2023-05-09T06:09:59.557Z,20.60
2023-05-09T06:15:06.014Z,19.93
2023-05-09T06:20:09.443Z,20.27
2023-05-09T06:25:12.763Z,18.63
2023-05-09T06:30:25.672Z,14.40
2023-05-09T06:35:29.888Z,11.27
2023-05-09T06:40:33.089Z,8.30
2023-05-09T06:45:36.317Z,6.63
2023-05-09T06:50:39.627Z,5.63
2023-05-09T06:55:43.238Z,4.80
2023-05-09T07:00:46.351Z,3.93
2023-05-09T07:05:49.471Z,4.17
2023-05-09T07:10:52.466Z,3.33
2023-05-09T07:15:55.558Z,3.87
2023-05-09T07:20:58.845Z,2.53
2023-05-09T07:26:02.212Z,3.40
2023-05-09T07:31:06.702Z,3.17
2023-05-09T07:36:13.409Z,2.73
2023-05-09T07:41:16.746Z,3.00
2023-05-09T07:46:19.886Z,2.93
2023-05-09T07:51:23.087Z,2.37
2023-05-09T07:56:26.773Z,2.40
2023-05-09T08:01:29.840Z,2.67
2023-05-09T08:06:33.487Z,2.17
2023-05-09T08:11:36.771Z,2.43
2023-05-09T08:16:40.136Z,2.10
2023-05-09T08:21:50.410Z,2.42
2023-05-09T08:26:53.584Z,2.50
2023-05-09T08:31:56.856Z,2.20
2023-05-09T08:37:00.398Z,2.60
2023-05-09T08:42:03.704Z,2.92
2023-05-09T08:47:07.716Z,2.30
2023-05-09T08:52:12.286Z,2.70
2023-05-09T08:57:15.969Z,2.95
2023-05-09T09:02:19.950Z,3.03
2023-05-09T09:07:23.967Z,2.83
2023-05-09T09:12:27.165Z,2.60
2023-05-09T09:17:31.372Z,2.90
2023-05-09T09:22:35.375Z,2.80
2023-05-09T09:27:38.739Z,2.40
2023-05-09T09:32:42.274Z,2.80
2023-05-09T09:37:45.377Z,3.38
2023-05-09T09:42:49.181Z,3.38
2023-05-09T09:47:52.315Z,2.97
2023-05-09T09:52:57.119Z,2.50
2023-05-09T09:58:00.533Z,2.35
2023-05-09T10:03:03.785Z,2.88
2023-05-09T10:08:10.259Z,4.15
2023-05-09T10:13:13.602Z,3.00
2023-05-09T10:18:20.389Z,2.80
2023-05-09T10:23:24.693Z,3.42
2023-05-09T10:28:33.621Z,2.55
2023-05-09T10:33:46.487Z,2.63
2023-05-09T10:38:54.336Z,2.70
2023-05-09T10:44:00.146Z,2.90
2023-05-09T10:49:03.599Z,2.60
2023-05-09T10:54:16.019Z,2.97
2023-05-09T10:59:38.011Z,2.65
2023-05-09T11:04:41.945Z,2.75
2023-05-09T11:09:44.916Z,3.08
2023-05-09T11:14:49.344Z,2.40
2023-05-09T11:19:52.292Z,2.85
2023-05-09T11:25:05.236Z,2.60
2023-05-09T11:30:10.044Z,3.05
2023-05-09T11:35:21.160Z,2.63
2023-05-09T11:40:25.207Z,2.05
2023-05-09T11:45:33.349Z,2.35
2023-05-09T11:50:36.890Z,2.38
2023-05-09T11:55:41.918Z,2.53
2023-05-09T12:00:45.921Z,2.97
2023-05-09T12:05:49.674Z,2.45
2023-05-09T12:10:52.733Z,2.05
2023-05-09T12:16:04.369Z,2.25
2023-05-09T12:21:08.076Z,2.80
2023-05-09T12:26:11.317Z,2.28
2023-05-09T12:31:14.584Z,2.50
2023-05-09T12:36:18.243Z,2.53
2023-05-09T12:41:36.865Z,2.35
2023-05-09T12:46:55.298Z,2.72
2023-05-09T12:52:03.020Z,2.63
2023-05-09T12:57:25.069Z,2.90
2023-05-09T13:02:29.010Z,2.50
2023-05-09T13:07:42.864Z,2.75
2023-05-09T13:12:48.655Z,4.35
2023-05-09T13:17:53.005Z,3.03
2023-05-09T13:22:56.059Z,3.90
2023-05-09T13:27:59.034Z,4.13
2023-05-09T13:33:06.510Z,2.67
2023-05-09T13:38:16.156Z,3.33
2023-05-09T13:43:19.162Z,3.50
2023-05-09T13:48:22.139Z,10.32
2023-05-09T13:53:25.113Z,3.67
2023-05-09T13:58:28.480Z,3.60
2023-05-09T14:03:32.430Z,2.88
2023-05-09T14:08:35.710Z,2.70
2023-05-09T14:13:38.684Z,2.45
2023-05-09T14:18:41.786Z,2.42
2023-05-09T14:23:44.865Z,3.53
2023-05-09T14:28:48.561Z,3.22
2023-05-09T14:33:51.533Z,2.85
2023-05-09T14:38:54.662Z,3.05
2023-05-09T14:43:57.787Z,2.88
2023-05-09T14:49:04.596Z,2.40
2023-05-09T14:54:07.885Z,2.83
2023-05-09T14:59:11.878Z,2.95
2023-05-09T15:04:15.615Z,2.53
2023-05-09T15:09:22.712Z,2.40
2023-05-09T15:14:26.737Z,2.70
2023-05-09T15:19:31.978Z,2.45
2023-05-09T15:24:35.270Z,2.65
2023-05-09T15:29:38.420Z,2.10
2023-05-09T15:34:41.343Z,1.88
2023-05-09T15:39:46.664Z,2.70
2023-05-09T15:44:50.123Z,2.70
2023-05-09T15:49:53.756Z,2.33
2023-05-09T15:54:57.038Z,2.63
2023-05-09T16:00:00.252Z,2.40
2023-05-09T16:05:03.564Z,2.20
2023-05-09T16:10:07.157Z,2.40
2023-05-09T16:15:10.661Z,1.60
2023-05-09T16:20:14.545Z,2.38
2023-05-09T16:25:18.531Z,2.45
2023-05-09T16:30:21.642Z,2.97
2023-05-09T16:35:24.638Z,2.20
2023-05-09T16:40:27.721Z,2.40
2023-05-09T16:45:30.876Z,2.30
2023-05-09T16:50:34.077Z,2.90
2023-05-09T16:55:37.234Z,3.35
2023-05-09T17:00:40.420Z,3.22
2023-05-09T17:05:43.608Z,2.70
2023-05-09T17:10:46.889Z,2.88
2023-05-09T17:15:55.057Z,3.25
2023-05-09T17:20:59.062Z,2.70
2023-05-09T17:26:02.143Z,2.97
2023-05-09T17:31:05.269Z,3.55
2023-05-09T17:36:08.372Z,6.57
2023-05-09T17:41:11.403Z,3.80
2023-05-09T17:46:15.188Z,3.78
2023-05-09T17:51:18.569Z,4.47
2023-05-09T17:56:22.672Z,5.75
2023-05-09T18:01:26.453Z,3.72
2023-05-09T18:06:30.099Z,2.80
2023-05-09T18:11:33.678Z,2.88
2023-05-09T18:16:36.942Z,2.80
2023-05-09T18:21:40.165Z,3.15
2023-05-09T18:26:43.671Z,3.90
2023-05-09T18:31:47.339Z,2.78
2023-05-09T18:36:52.940Z,3.47
2023-05-09T18:41:56.323Z,4.80
2023-05-09T18:47:00.238Z,4.37
2023-05-09T18:52:03.929Z,5.90
2023-05-09T18:57:09.240Z,7.43
2023-05-09T19:02:13.203Z,10.17
2023-05-09T19:07:16.828Z,10.63
2023-05-09T19:12:20.009Z,8.67
2023-05-09T19:17:24.973Z,9.80
2023-05-09T19:22:30.208Z,9.03
2023-05-09T19:27:33.520Z,10.60
2023-05-09T19:32:37.358Z,7.73
2023-05-09T19:37:43.641Z,6.57
2023-05-09T19:42:49.681Z,5.90
2023-05-09T19:47:56.112Z,5.50
2023-05-09T19:53:01.941Z,5.93
2023-05-09T19:58:06.905Z,6.60
2023-05-09T20:03:11.113Z,7.07
2023-05-09T20:08:15.342Z,6.73
2023-05-09T20:13:19.306Z,7.00
2023-05-09T20:18:23.306Z,6.87
2023-05-09T20:23:32.088Z,6.40
2023-05-09T20:28:36.451Z,7.47
2023-05-09T20:33:42.099Z,6.93
2023-05-09T20:38:46.753Z,6.33
2023-05-09T20:43:52.792Z,5.23
2023-05-09T20:48:58.068Z,5.43
2023-05-09T20:54:01.490Z,7.57
2023-05-09T20:59:05.934Z,9.03
2023-05-09T21:04:09.115Z,10.07
2023-05-09T21:09:12.547Z,11.40
2023-05-09T21:14:15.594Z,9.67
2023-05-09T21:19:18.519Z,7.30
2023-05-09T21:24:21.521Z,5.43
2023-05-09T21:29:24.759Z,7.37
2023-05-09T21:34:28.599Z,6.70
2023-05-09T21:39:33.410Z,7.67
2023-05-09T21:44:36.577Z,5.30
2023-05-09T21:49:39.452Z,4.60
2023-05-09T21:54:42.654Z,4.77
2023-05-09T21:59:45.675Z,5.03
2023-05-09T22:04:48.977Z,3.33
2023-05-09T22:09:53.171Z,3.80
2023-05-09T22:14:57.077Z,4.07
2023-05-09T22:19:59.971Z,3.37
2023-05-09T22:25:05.007Z,3.40
2023-05-09T22:30:09.527Z,3.13
2023-05-09T22:35:12.747Z,3.40
2023-05-09T22:40:16.060Z,4.10
2023-05-09T22:45:20.047Z,3.43
2023-05-09T22:50:23.417Z,3.90
2023-05-09T22:55:26.489Z,3.83
2023-05-09T23:00:29.672Z,4.00
2023-05-09T23:05:32.771Z,3.53
2023-05-09T23:10:36.012Z,4.03
2023-05-09T23:15:39.125Z,3.43
2023-05-09T23:20:42.266Z,4.10
2023-05-09T23:25:45.352Z,3.97
2023-05-09T23:30:48.531Z,3.77
2023-05-09T23:35:51.797Z,3.47
2023-05-09T23:40:56.480Z,3.70
2023-05-09T23:45:59.648Z,3.50
2023-05-09T23:51:02.675Z,3.53
2023-05-09T23:56:06.129Z,4.10
